sensor_id;sensor_type;location;lat;lon;timestamp;temperature;humidity
38131;DHT22;23947;51.894;4.622;2022-07-29T00:02:00;16.90;1.00
38131;DHT22;23947;51.894;4.622;2022-07-29T00:04:25;16.80;1.00
38131;DHT22;23947;51.894;4.622;2022-07-29T00:06:51;16.80;1.00
38131;DHT22;23947;51.894;4.622;2022-07-29T00:09:16;16.80;1.00
38131;DHT22;23947;51.894;4.622;2022-07-29T00:11:42;16.80;1.00
38131;DHT22;23947;51.894;4.622;2022-07-29T00:14:09;16.80;1.00
38131;DHT22;23947;51.894;4.622;2022-07-29T00:16:35;16.70;1.00
38131;DHT22;23947;51.894;4.622;2022-07-29T00:19:01;16.70;1.00
38131;DHT22;23947;51.894;4.622;2022-07-29T00:21:26;16.70;1.00
38131;DHT22;23947;51.894;4.622;2022-07-29T00:23:52;16.60;1.00
38131;DHT22;23947;51.894;4.622;2022-07-29T00:26:17;16.60;1.00
38131;DHT22;23947;51.894;4.622;2022-07-29T00:28:43;16.60;1.00
38131;DHT22;23947;51.894;4.622;2022-07-29T00:31:09;16.70;1.00
38131;DHT22;23947;51.894;4.622;2022-07-29T00:33:34;16.70;1.00
38131;DHT22;23947;51.894;4.622;2022-07-29T00:36:00;16.60;1.00
38131;DHT22;23947;51.894;4.622;2022-07-29T00:38:25;16.60;1.00
38131;DHT22;23947;51.894;4.622;2022-07-29T00:40:54;16.60;1.00
38131;DHT22;23947;51.894;4.622;2022-07-29T00:43:20;16.60;1.00
38131;DHT22;23947;51.894;4.622;2022-07-29T00:45:46;16.60;1.00
38131;DHT22;23947;51.894;4.622;2022-07-29T00:48:11;16.60;1.00
38131;DHT22;23947;51.894;4.622;2022-07-29T00:50:38;16.60;1.00
38131;DHT22;23947;51.894;4.622;2022-07-29T00:53:05;16.50;1.00
38131;DHT22;23947;51.894;4.622;2022-07-29T00:55:31;16.50;1.00
38131;DHT22;23947;51.894;4.622;2022-07-29T00:57:58;16.50;1.00
38131;DHT22;23947;51.894;4.622;2022-07-29T01:00:26;16.50;1.00
38131;DHT22;23947;51.894;4.622;2022-07-29T01:02:52;16.50;1.00
38131;DHT22;23947;51.894;4.622;2022-07-29T01:05:20;16.40;1.00
38131;DHT22;23947;51.894;4.622;2022-07-29T01:07:47;16.50;1.00
38131;DHT22;23947;51.894;4.622;2022-07-29T01:10:15;16.40;1.00
38131;DHT22;23947;51.894;4.622;2022-07-29T01:12:43;16.40;1.00
38131;DHT22;23947;51.894;4.622;2022-07-29T01:15:10;16.50;1.00
38131;DHT22;23947;51.894;4.622;2022-07-29T01:17:39;16.40;1.00
38131;DHT22;23947;51.894;4.622;2022-07-29T01:23:23;16.30;1.00
38131;DHT22;23947;51.894;4.622;2022-07-29T01:25:54;16.40;1.00
38131;DHT22;23947;51.894;4.622;2022-07-29T01:31:04;16.40;1.00
38131;DHT22;23947;51.894;4.622;2022-07-29T01:33:32;16.40;1.00
38131;DHT22;23947;51.894;4.622;2022-07-29T01:37:02;16.40;1.00
38131;DHT22;23947;51.894;4.622;2022-07-29T01:39:14;16.40;1.00
38131;DHT22;23947;51.894;4.622;2022-07-29T01:41:50;16.30;1.00
38131;DHT22;23947;51.894;4.622;2022-07-29T01:44:23;16.30;1.00
38131;DHT22;23947;51.894;4.622;2022-07-29T01:46:58;16.20;1.00
38131;DHT22;23947;51.894;4.622;2022-07-29T01:49:28;16.30;1.00
38131;DHT22;23947;51.894;4.622;2022-07-29T01:52:00;16.30;1.00
38131;DHT22;23947;51.894;4.622;2022-07-29T01:54:38;16.30;1.00
38131;DHT22;23947;51.894;4.622;2022-07-29T01:57:06;16.30;1.00
38131;DHT22;23947;51.894;4.622;2022-07-29T01:59:34;16.30;1.00
38131;DHT22;23947;51.894;4.622;2022-07-29T02:02:02;16.20;1.00
38131;DHT22;23947;51.894;4.622;2022-07-29T02:04:28;16.20;1.00
38131;DHT22;23947;51.894;4.622;2022-07-29T02:06:58;16.20;1.00
38131;DHT22;23947;51.894;4.622;2022-07-29T02:09:26;16.20;1.00
38131;DHT22;23947;51.894;4.622;2022-07-29T02:11:53;16.20;1.00
38131;DHT22;23947;51.894;4.622;2022-07-29T02:14:22;16.20;1.00
38131;DHT22;23947;51.894;4.622;2022-07-29T02:16:51;16.10;1.00
38131;DHT22;23947;51.894;4.622;2022-07-29T02:19:18;16.10;1.00
38131;DHT22;23947;51.894;4.622;2022-07-29T02:21:45;16.10;1.00
38131;DHT22;23947;51.894;4.622;2022-07-29T02:24:12;16.20;1.00
38131;DHT22;23947;51.894;4.622;2022-07-29T02:26:43;16.20;1.00
38131;DHT22;23947;51.894;4.622;2022-07-29T02:29:10;16.20;1.00
38131;DHT22;23947;51.894;4.622;2022-07-29T02:31:38;16.10;1.00
38131;DHT22;23947;51.894;4.622;2022-07-29T02:34:07;16.10;1.00
38131;DHT22;23947;51.894;4.622;2022-07-29T02:36:34;16.00;1.00
38131;DHT22;23947;51.894;4.622;2022-07-29T02:39:02;16.00;1.00
38131;DHT22;23947;51.894;4.622;2022-07-29T02:44:11;16.10;1.00
38131;DHT22;23947;51.894;4.622;2022-07-29T02:46:45;16.00;1.00
38131;DHT22;23947;51.894;4.622;2022-07-29T02:49:35;16.00;1.00
38131;DHT22;23947;51.894;4.622;2022-07-29T02:57:21;15.90;1.00
38131;DHT22;23947;51.894;4.622;2022-07-29T02:59:51;15.90;1.00
38131;DHT22;23947;51.894;4.622;2022-07-29T03:02:17;15.90;1.00
38131;DHT22;23947;51.894;4.622;2022-07-29T03:04:44;15.90;1.00
38131;DHT22;23947;51.894;4.622;2022-07-29T03:07:13;15.90;1.00
38131;DHT22;23947;51.894;4.622;2022-07-29T03:09:40;15.90;1.00
38131;DHT22;23947;51.894;4.622;2022-07-29T03:12:07;15.80;1.00
38131;DHT22;23947;51.894;4.622;2022-07-29T03:14:33;15.80;1.00
38131;DHT22;23947;51.894;4.622;2022-07-29T03:16:59;15.80;1.00
38131;DHT22;23947;51.894;4.622;2022-07-29T03:19:26;15.80;1.00
38131;DHT22;23947;51.894;4.622;2022-07-29T03:21:52;15.80;1.00
38131;DHT22;23947;51.894;4.622;2022-07-29T03:24:28;15.80;1.00
38131;DHT22;23947;51.894;4.622;2022-07-29T03:26:55;15.80;1.00
38131;DHT22;23947;51.894;4.622;2022-07-29T03:29:21;15.80;1.00
38131;DHT22;23947;51.894;4.622;2022-07-29T03:31:47;15.80;1.00
38131;DHT22;23947;51.894;4.622;2022-07-29T03:34:13;15.80;1.00
38131;DHT22;23947;51.894;4.622;2022-07-29T03:36:38;15.80;1.00
38131;DHT22;23947;51.894;4.622;2022-07-29T03:39:05;15.80;1.00
38131;DHT22;23947;51.894;4.622;2022-07-29T03:41:31;15.70;1.00
38131;DHT22;23947;51.894;4.622;2022-07-29T03:43:58;15.70;1.00
38131;DHT22;23947;51.894;4.622;2022-07-29T03:46:28;15.70;1.00
38131;DHT22;23947;51.894;4.622;2022-07-29T03:48:58;15.70;1.00
38131;DHT22;23947;51.894;4.622;2022-07-29T03:51:25;15.70;1.00
38131;DHT22;23947;51.894;4.622;2022-07-29T03:53:51;15.70;1.00
38131;DHT22;23947;51.894;4.622;2022-07-29T03:56:21;15.80;1.00
38131;DHT22;23947;51.894;4.622;2022-07-29T03:58:49;15.70;1.00
38131;DHT22;23947;51.894;4.622;2022-07-29T04:01:16;15.70;1.00
38131;DHT22;23947;51.894;4.622;2022-07-29T04:03:43;15.70;1.00
38131;DHT22;23947;51.894;4.622;2022-07-29T04:06:12;15.70;1.00
38131;DHT22;23947;51.894;4.622;2022-07-29T04:08:37;15.70;1.00
38131;DHT22;23947;51.894;4.622;2022-07-29T04:11:04;15.70;1.00
38131;DHT22;23947;51.894;4.622;2022-07-29T04:13:33;15.70;1.00
38131;DHT22;23947;51.894;4.622;2022-07-29T04:15:59;15.70;1.00
38131;DHT22;23947;51.894;4.622;2022-07-29T04:18:25;15.70;1.00
38131;DHT22;23947;51.894;4.622;2022-07-29T04:20:50;15.70;1.00
38131;DHT22;23947;51.894;4.622;2022-07-29T04:23:16;15.70;1.00
38131;DHT22;23947;51.894;4.622;2022-07-29T04:25:42;15.70;1.00
38131;DHT22;23947;51.894;4.622;2022-07-29T04:28:08;15.70;1.00
38131;DHT22;23947;51.894;4.622;2022-07-29T04:30:35;15.70;1.00
38131;DHT22;23947;51.894;4.622;2022-07-29T04:33:04;15.60;1.00
38131;DHT22;23947;51.894;4.622;2022-07-29T04:35:38;15.60;1.00
38131;DHT22;23947;51.894;4.622;2022-07-29T04:38:05;15.60;1.00
38131;DHT22;23947;51.894;4.622;2022-07-29T04:40:31;15.60;1.00
38131;DHT22;23947;51.894;4.622;2022-07-29T04:42:59;15.60;1.00
38131;DHT22;23947;51.894;4.622;2022-07-29T04:45:28;15.50;1.00
38131;DHT22;23947;51.894;4.622;2022-07-29T04:47:55;15.60;1.00
38131;DHT22;23947;51.894;4.622;2022-07-29T04:50:21;15.60;1.00
38131;DHT22;23947;51.894;4.622;2022-07-29T04:52:47;15.60;1.00
38131;DHT22;23947;51.894;4.622;2022-07-29T04:55:15;15.70;1.00
38131;DHT22;23947;51.894;4.622;2022-07-29T04:58:10;15.80;1.00
38131;DHT22;23947;51.894;4.622;2022-07-29T05:00:46;15.90;1.00
38131;DHT22;23947;51.894;4.622;2022-07-29T05:03:11;15.80;1.00
38131;DHT22;23947;51.894;4.622;2022-07-29T05:05:40;15.80;1.00
38131;DHT22;23947;51.894;4.622;2022-07-29T05:08:06;15.70;1.00
38131;DHT22;23947;51.894;4.622;2022-07-29T05:10:31;15.70;1.00
38131;DHT22;23947;51.894;4.622;2022-07-29T05:12:57;15.60;1.00
38131;DHT22;23947;51.894;4.622;2022-07-29T05:15:23;15.50;1.00
38131;DHT22;23947;51.894;4.622;2022-07-29T05:17:49;15.50;1.00
38131;DHT22;23947;51.894;4.622;2022-07-29T05:20:26;15.50;1.00
38131;DHT22;23947;51.894;4.622;2022-07-29T05:22:55;15.40;1.00
38131;DHT22;23947;51.894;4.622;2022-07-29T05:25:21;15.40;1.00
38131;DHT22;23947;51.894;4.622;2022-07-29T05:27:50;15.40;1.00
38131;DHT22;23947;51.894;4.622;2022-07-29T05:30:16;15.40;1.00
38131;DHT22;23947;51.894;4.622;2022-07-29T05:32:41;15.40;1.00
38131;DHT22;23947;51.894;4.622;2022-07-29T05:35:10;15.40;1.00
38131;DHT22;23947;51.894;4.622;2022-07-29T05:37:45;15.40;1.00
38131;DHT22;23947;51.894;4.622;2022-07-29T05:40:11;15.50;1.00
38131;DHT22;23947;51.894;4.622;2022-07-29T05:42:37;15.60;1.00
38131;DHT22;23947;51.894;4.622;2022-07-29T05:45:03;15.60;1.00
38131;DHT22;23947;51.894;4.622;2022-07-29T05:47:28;15.70;1.00
38131;DHT22;23947;51.894;4.622;2022-07-29T05:49:54;15.90;1.00
38131;DHT22;23947;51.894;4.622;2022-07-29T05:52:20;15.90;1.00
38131;DHT22;23947;51.894;4.622;2022-07-29T05:54:46;16.10;1.00
38131;DHT22;23947;51.894;4.622;2022-07-29T05:57:19;16.10;1.00
38131;DHT22;23947;51.894;4.622;2022-07-29T05:59:45;16.10;1.00
38131;DHT22;23947;51.894;4.622;2022-07-29T06:02:11;16.10;1.00
38131;DHT22;23947;51.894;4.622;2022-07-29T06:04:37;16.10;1.00
38131;DHT22;23947;51.894;4.622;2022-07-29T06:07:06;16.20;1.00
38131;DHT22;23947;51.894;4.622;2022-07-29T06:09:32;16.20;1.00
38131;DHT22;23947;51.894;4.622;2022-07-29T06:11:58;16.20;1.00
38131;DHT22;23947;51.894;4.622;2022-07-29T06:14:24;16.30;1.00
38131;DHT22;23947;51.894;4.622;2022-07-29T06:16:52;16.20;1.00
38131;DHT22;23947;51.894;4.622;2022-07-29T06:19:18;16.30;1.00
38131;DHT22;23947;51.894;4.622;2022-07-29T06:21:45;16.20;1.00
38131;DHT22;23947;51.894;4.622;2022-07-29T06:24:15;16.20;1.00
38131;DHT22;23947;51.894;4.622;2022-07-29T06:26:41;16.20;1.00
38131;DHT22;23947;51.894;4.622;2022-07-29T06:29:08;16.20;1.00
38131;DHT22;23947;51.894;4.622;2022-07-29T06:31:40;16.30;1.00
38131;DHT22;23947;51.894;4.622;2022-07-29T06:34:08;16.30;1.00
38131;DHT22;23947;51.894;4.622;2022-07-29T06:36:35;16.30;1.00
38131;DHT22;23947;51.894;4.622;2022-07-29T06:39:07;16.30;1.00
38131;DHT22;23947;51.894;4.622;2022-07-29T06:41:33;16.30;1.00
38131;DHT22;23947;51.894;4.622;2022-07-29T06:43:59;16.40;1.00
38131;DHT22;23947;51.894;4.622;2022-07-29T06:46:31;16.50;1.00
38131;DHT22;23947;51.894;4.622;2022-07-29T06:48:57;16.50;1.00
38131;DHT22;23947;51.894;4.622;2022-07-29T06:51:23;16.50;1.00
38131;DHT22;23947;51.894;4.622;2022-07-29T06:53:52;16.60;1.00
38131;DHT22;23947;51.894;4.622;2022-07-29T06:56:23;16.50;1.00
38131;DHT22;23947;51.894;4.622;2022-07-29T06:58:51;16.60;1.00
38131;DHT22;23947;51.894;4.622;2022-07-29T07:01:17;16.70;1.00
38131;DHT22;23947;51.894;4.622;2022-07-29T07:03:43;16.70;1.00
38131;DHT22;23947;51.894;4.622;2022-07-29T07:06:08;16.80;1.00
38131;DHT22;23947;51.894;4.622;2022-07-29T07:08:34;16.80;1.00
38131;DHT22;23947;51.894;4.622;2022-07-29T07:11:00;16.90;1.00
38131;DHT22;23947;51.894;4.622;2022-07-29T07:13:25;17.10;1.00
38131;DHT22;23947;51.894;4.622;2022-07-29T07:15:51;17.20;1.00
38131;DHT22;23947;51.894;4.622;2022-07-29T07:18:17;17.20;1.00
38131;DHT22;23947;51.894;4.622;2022-07-29T07:20:44;17.20;1.00
38131;DHT22;23947;51.894;4.622;2022-07-29T07:23:10;17.30;1.00
38131;DHT22;23947;51.894;4.622;2022-07-29T07:25:36;17.30;1.00
38131;DHT22;23947;51.894;4.622;2022-07-29T07:28:02;17.40;1.00
38131;DHT22;23947;51.894;4.622;2022-07-29T07:30:27;17.30;1.00
38131;DHT22;23947;51.894;4.622;2022-07-29T07:32:54;17.40;1.00
38131;DHT22;23947;51.894;4.622;2022-07-29T07:35:20;17.40;1.00
38131;DHT22;23947;51.894;4.622;2022-07-29T07:37:46;17.50;1.00
38131;DHT22;23947;51.894;4.622;2022-07-29T07:40:13;17.60;1.00
38131;DHT22;23947;51.894;4.622;2022-07-29T07:42:39;17.60;1.00
38131;DHT22;23947;51.894;4.622;2022-07-29T07:45:06;17.70;1.00
38131;DHT22;23947;51.894;4.622;2022-07-29T07:47:35;17.80;1.00
38131;DHT22;23947;51.894;4.622;2022-07-29T07:50:00;17.80;1.00
38131;DHT22;23947;51.894;4.622;2022-07-29T07:52:26;17.80;1.00
38131;DHT22;23947;51.894;4.622;2022-07-29T07:54:51;17.90;1.00
38131;DHT22;23947;51.894;4.622;2022-07-29T07:57:18;18.00;1.00
38131;DHT22;23947;51.894;4.622;2022-07-29T07:59:44;18.00;1.00
38131;DHT22;23947;51.894;4.622;2022-07-29T08:04:57;18.10;1.00
38131;DHT22;23947;51.894;4.622;2022-07-29T08:07:23;18.20;1.00
38131;DHT22;23947;51.894;4.622;2022-07-29T08:09:48;18.20;1.00
38131;DHT22;23947;51.894;4.622;2022-07-29T08:12:14;18.20;1.00
38131;DHT22;23947;51.894;4.622;2022-07-29T08:14:39;18.30;1.00
38131;DHT22;23947;51.894;4.622;2022-07-29T08:17:05;18.30;1.00
38131;DHT22;23947;51.894;4.622;2022-07-29T08:19:31;18.40;1.00
38131;DHT22;23947;51.894;4.622;2022-07-29T08:21:56;18.40;1.00
38131;DHT22;23947;51.894;4.622;2022-07-29T08:24:22;18.50;1.00
38131;DHT22;23947;51.894;4.622;2022-07-29T08:27:10;18.60;1.00
38131;DHT22;23947;51.894;4.622;2022-07-29T08:29:45;18.70;1.00
38131;DHT22;23947;51.894;4.622;2022-07-29T08:32:11;18.80;1.00
38131;DHT22;23947;51.894;4.622;2022-07-29T08:34:36;18.80;1.00
38131;DHT22;23947;51.894;4.622;2022-07-29T08:37:02;18.80;1.00
38131;DHT22;23947;51.894;4.622;2022-07-29T08:39:28;18.90;1.00
38131;DHT22;23947;51.894;4.622;2022-07-29T08:41:54;19.10;1.00
38131;DHT22;23947;51.894;4.622;2022-07-29T08:44:20;19.10;1.00
38131;DHT22;23947;51.894;4.622;2022-07-29T08:46:47;19.10;1.00
38131;DHT22;23947;51.894;4.622;2022-07-29T08:49:13;19.20;1.00
38131;DHT22;23947;51.894;4.622;2022-07-29T08:51:40;19.30;1.00
38131;DHT22;23947;51.894;4.622;2022-07-29T08:54:08;19.30;1.00
38131;DHT22;23947;51.894;4.622;2022-07-29T08:56:34;19.40;1.00
38131;DHT22;23947;51.894;4.622;2022-07-29T08:59:03;19.40;1.00
38131;DHT22;23947;51.894;4.622;2022-07-29T09:01:32;19.40;1.00
38131;DHT22;23947;51.894;4.622;2022-07-29T09:03:58;19.50;1.00
38131;DHT22;23947;51.894;4.622;2022-07-29T09:06:31;19.60;1.00
38131;DHT22;23947;51.894;4.622;2022-07-29T09:08:59;19.70;1.00
38131;DHT22;23947;51.894;4.622;2022-07-29T09:11:28;19.80;1.00
38131;DHT22;23947;51.894;4.622;2022-07-29T09:13:53;19.80;1.00
38131;DHT22;23947;51.894;4.622;2022-07-29T09:16:19;19.90;1.00
38131;DHT22;23947;51.894;4.622;2022-07-29T09:18:46;20.00;1.00
38131;DHT22;23947;51.894;4.622;2022-07-29T09:21:14;20.00;1.00
38131;DHT22;23947;51.894;4.622;2022-07-29T09:24:09;19.90;1.00
38131;DHT22;23947;51.894;4.622;2022-07-29T09:26:45;20.00;1.00
38131;DHT22;23947;51.894;4.622;2022-07-29T09:29:14;20.00;1.00
38131;DHT22;23947;51.894;4.622;2022-07-29T09:31:41;20.10;1.00
38131;DHT22;23947;51.894;4.622;2022-07-29T09:34:07;20.30;1.00
38131;DHT22;23947;51.894;4.622;2022-07-29T09:36:44;20.40;1.00
38131;DHT22;23947;51.894;4.622;2022-07-29T09:39:11;20.50;1.00
38131;DHT22;23947;51.894;4.622;2022-07-29T09:41:45;20.70;1.00
38131;DHT22;23947;51.894;4.622;2022-07-29T09:44:11;20.80;1.00
38131;DHT22;23947;51.894;4.622;2022-07-29T09:46:37;20.90;1.00
38131;DHT22;23947;51.894;4.622;2022-07-29T09:49:07;21.00;1.00
38131;DHT22;23947;51.894;4.622;2022-07-29T09:51:34;21.10;1.00
38131;DHT22;23947;51.894;4.622;2022-07-29T09:53:59;21.40;1.00
38131;DHT22;23947;51.894;4.622;2022-07-29T09:56:49;21.50;1.00
38131;DHT22;23947;51.894;4.622;2022-07-29T09:59:15;21.70;1.00
38131;DHT22;23947;51.894;4.622;2022-07-29T10:03:52;22.00;1.00
38131;DHT22;23947;51.894;4.622;2022-07-29T10:06:18;22.20;1.00
38131;DHT22;23947;51.894;4.622;2022-07-29T10:08:44;22.30;1.00
38131;DHT22;23947;51.894;4.622;2022-07-29T10:11:14;22.50;1.00
38131;DHT22;23947;51.894;4.622;2022-07-29T10:13:42;22.60;1.00
38131;DHT22;23947;51.894;4.622;2022-07-29T10:16:08;22.80;1.00
38131;DHT22;23947;51.894;4.622;2022-07-29T10:18:34;22.90;1.00
38131;DHT22;23947;51.894;4.622;2022-07-29T10:21:04;23.00;1.00
38131;DHT22;23947;51.894;4.622;2022-07-29T10:23:31;23.20;1.00
38131;DHT22;23947;51.894;4.622;2022-07-29T10:25:57;23.30;1.00
38131;DHT22;23947;51.894;4.622;2022-07-29T10:28:23;23.40;1.00
38131;DHT22;23947;51.894;4.622;2022-07-29T10:31:00;23.60;1.00
38131;DHT22;23947;51.894;4.622;2022-07-29T10:34:12;23.60;1.00
38131;DHT22;23947;51.894;4.622;2022-07-29T10:44:24;24.40;1.00
38131;DHT22;23947;51.894;4.622;2022-07-29T10:46:52;24.40;1.00
38131;DHT22;23947;51.894;4.622;2022-07-29T10:49:23;24.60;1.00
38131;DHT22;23947;51.894;4.622;2022-07-29T10:52:04;24.80;1.00
38131;DHT22;23947;51.894;4.622;2022-07-29T10:59:48;25.20;1.00
38131;DHT22;23947;51.894;4.622;2022-07-29T11:05:17;25.50;1.00
38131;DHT22;23947;51.894;4.622;2022-07-29T11:08:23;25.80;1.00
38131;DHT22;23947;51.894;4.622;2022-07-29T11:13:53;26.00;1.00
38131;DHT22;23947;51.894;4.622;2022-07-29T11:16:21;25.80;1.00
38131;DHT22;23947;51.894;4.622;2022-07-29T11:21:39;26.00;1.00
38131;DHT22;23947;51.894;4.622;2022-07-29T11:24:16;26.20;1.00
38131;DHT22;23947;51.894;4.622;2022-07-29T11:26:42;26.20;1.00
38131;DHT22;23947;51.894;4.622;2022-07-29T11:29:21;26.40;1.00
38131;DHT22;23947;51.894;4.622;2022-07-29T11:31:52;26.50;1.00
38131;DHT22;23947;51.894;4.622;2022-07-29T11:34:26;26.60;1.00
38131;DHT22;23947;51.894;4.622;2022-07-29T11:44:59;26.80;1.00
38131;DHT22;23947;51.894;4.622;2022-07-29T11:47:27;26.70;1.00
38131;DHT22;23947;51.894;4.622;2022-07-29T11:49:55;26.90;1.00
38131;DHT22;23947;51.894;4.622;2022-07-29T11:52:21;27.00;1.00
38131;DHT22;23947;51.894;4.622;2022-07-29T11:54:48;27.10;1.00
38131;DHT22;23947;51.894;4.622;2022-07-29T11:57:18;27.20;1.00
38131;DHT22;23947;51.894;4.622;2022-07-29T11:59:46;27.20;1.00
38131;DHT22;23947;51.894;4.622;2022-07-29T12:02:13;27.40;1.00
38131;DHT22;23947;51.894;4.622;2022-07-29T12:07:17;27.40;1.00
38131;DHT22;23947;51.894;4.622;2022-07-29T12:09:50;27.30;1.00
38131;DHT22;23947;51.894;4.622;2022-07-29T12:12:17;27.50;1.00
38131;DHT22;23947;51.894;4.622;2022-07-29T12:14:42;27.50;1.00
38131;DHT22;23947;51.894;4.622;2022-07-29T12:17:29;27.60;1.00
38131;DHT22;23947;51.894;4.622;2022-07-29T12:19:59;27.70;1.00
38131;DHT22;23947;51.894;4.622;2022-07-29T12:22:37;27.70;1.00
38131;DHT22;23947;51.894;4.622;2022-07-29T12:27:31;27.80;1.00
38131;DHT22;23947;51.894;4.622;2022-07-29T12:29:58;27.80;1.00
38131;DHT22;23947;51.894;4.622;2022-07-29T12:32:46;27.70;1.00
38131;DHT22;23947;51.894;4.622;2022-07-29T12:35:17;27.80;1.00
38131;DHT22;23947;51.894;4.622;2022-07-29T12:37:45;27.60;1.00
38131;DHT22;23947;51.894;4.622;2022-07-29T12:40:15;27.40;1.00
38131;DHT22;23947;51.894;4.622;2022-07-29T12:43:07;27.40;1.00
38131;DHT22;23947;51.894;4.622;2022-07-29T12:45:34;27.70;1.00
38131;DHT22;23947;51.894;4.622;2022-07-29T12:48:00;27.90;1.00
38131;DHT22;23947;51.894;4.622;2022-07-29T12:50:26;27.90;1.00
38131;DHT22;23947;51.894;4.622;2022-07-29T12:52:51;28.00;1.00
38131;DHT22;23947;51.894;4.622;2022-07-29T12:55:37;28.20;1.00
38131;DHT22;23947;51.894;4.622;2022-07-29T12:58:03;28.10;1.00
38131;DHT22;23947;51.894;4.622;2022-07-29T13:00:29;28.20;1.00
38131;DHT22;23947;51.894;4.622;2022-07-29T13:02:59;28.30;1.00
38131;DHT22;23947;51.894;4.622;2022-07-29T13:05:45;28.30;1.00
38131;DHT22;23947;51.894;4.622;2022-07-29T13:08:16;28.40;1.00
38131;DHT22;23947;51.894;4.622;2022-07-29T13:10:43;28.60;1.00
38131;DHT22;23947;51.894;4.622;2022-07-29T13:13:11;28.50;1.00
38131;DHT22;23947;51.894;4.622;2022-07-29T13:15:39;28.30;1.00
38131;DHT22;23947;51.894;4.622;2022-07-29T13:18:25;28.50;1.00
38131;DHT22;23947;51.894;4.622;2022-07-29T13:20:51;28.40;1.00
38131;DHT22;23947;51.894;4.622;2022-07-29T13:23:17;28.00;1.00
38131;DHT22;23947;51.894;4.622;2022-07-29T13:25:43;28.30;1.00
38131;DHT22;23947;51.894;4.622;2022-07-29T13:28:08;28.50;1.00
38131;DHT22;23947;51.894;4.622;2022-07-29T13:30:34;28.40;1.00
38131;DHT22;23947;51.894;4.622;2022-07-29T13:32:59;28.30;1.00
38131;DHT22;23947;51.894;4.622;2022-07-29T13:35:25;28.40;1.00
38131;DHT22;23947;51.894;4.622;2022-07-29T13:37:51;28.60;1.00
38131;DHT22;23947;51.894;4.622;2022-07-29T13:40:17;28.80;1.00
38131;DHT22;23947;51.894;4.622;2022-07-29T13:42:43;28.70;1.00
38131;DHT22;23947;51.894;4.622;2022-07-29T13:45:09;28.80;1.00
38131;DHT22;23947;51.894;4.622;2022-07-29T13:47:36;28.80;1.00
38131;DHT22;23947;51.894;4.622;2022-07-29T13:50:03;29.00;1.00
38131;DHT22;23947;51.894;4.622;2022-07-29T13:52:29;28.80;1.00
38131;DHT22;23947;51.894;4.622;2022-07-29T13:54:55;28.80;1.00
38131;DHT22;23947;51.894;4.622;2022-07-29T13:57:21;28.80;1.00
38131;DHT22;23947;51.894;4.622;2022-07-29T13:59:47;29.00;1.00
38131;DHT22;23947;51.894;4.622;2022-07-29T14:02:12;28.80;1.00
38131;DHT22;23947;51.894;4.622;2022-07-29T14:04:39;28.70;1.00
38131;DHT22;23947;51.894;4.622;2022-07-29T14:07:05;28.60;1.00
38131;DHT22;23947;51.894;4.622;2022-07-29T14:09:31;28.30;1.00
38131;DHT22;23947;51.894;4.622;2022-07-29T14:11:56;28.10;1.00
38131;DHT22;23947;51.894;4.622;2022-07-29T14:14:22;28.10;1.00
38131;DHT22;23947;51.894;4.622;2022-07-29T14:16:48;27.80;1.00
38131;DHT22;23947;51.894;4.622;2022-07-29T14:19:13;27.50;1.00
38131;DHT22;23947;51.894;4.622;2022-07-29T14:21:40;27.60;1.00
38131;DHT22;23947;51.894;4.622;2022-07-29T14:24:06;27.50;1.00
38131;DHT22;23947;51.894;4.622;2022-07-29T14:26:32;27.20;1.00
38131;DHT22;23947;51.894;4.622;2022-07-29T14:28:57;27.20;1.00
38131;DHT22;23947;51.894;4.622;2022-07-29T14:31:23;27.50;1.00
38131;DHT22;23947;51.894;4.622;2022-07-29T14:33:49;27.60;1.00
38131;DHT22;23947;51.894;4.622;2022-07-29T14:36:14;27.70;1.00
38131;DHT22;23947;51.894;4.622;2022-07-29T14:38:40;27.90;1.00
38131;DHT22;23947;51.894;4.622;2022-07-29T14:41:06;27.80;1.00
38131;DHT22;23947;51.894;4.622;2022-07-29T14:43:33;27.70;1.00
38131;DHT22;23947;51.894;4.622;2022-07-29T14:45:59;27.80;1.00
38131;DHT22;23947;51.894;4.622;2022-07-29T14:48:25;27.80;1.00
38131;DHT22;23947;51.894;4.622;2022-07-29T14:50:51;27.80;1.00
38131;DHT22;23947;51.894;4.622;2022-07-29T14:53:16;27.80;1.00
38131;DHT22;23947;51.894;4.622;2022-07-29T14:55:42;27.90;1.00
38131;DHT22;23947;51.894;4.622;2022-07-29T14:58:08;27.90;1.00
38131;DHT22;23947;51.894;4.622;2022-07-29T15:00:34;27.70;1.00
38131;DHT22;23947;51.894;4.622;2022-07-29T15:03:02;27.80;1.00
38131;DHT22;23947;51.894;4.622;2022-07-29T15:05:28;27.60;1.00
38131;DHT22;23947;51.894;4.622;2022-07-29T15:07:54;27.80;1.00
38131;DHT22;23947;51.894;4.622;2022-07-29T15:10:20;27.70;1.00
38131;DHT22;23947;51.894;4.622;2022-07-29T15:12:45;27.60;1.00
38131;DHT22;23947;51.894;4.622;2022-07-29T15:15:11;27.50;1.00
38131;DHT22;23947;51.894;4.622;2022-07-29T15:17:36;27.30;1.00
38131;DHT22;23947;51.894;4.622;2022-07-29T15:20:03;27.40;1.00
38131;DHT22;23947;51.894;4.622;2022-07-29T15:22:31;27.30;1.00
38131;DHT22;23947;51.894;4.622;2022-07-29T15:24:57;27.30;1.00
38131;DHT22;23947;51.894;4.622;2022-07-29T15:27:22;27.20;1.00
38131;DHT22;23947;51.894;4.622;2022-07-29T15:29:48;27.10;1.00
38131;DHT22;23947;51.894;4.622;2022-07-29T15:32:14;27.20;1.00
38131;DHT22;23947;51.894;4.622;2022-07-29T15:34:40;27.10;1.00
38131;DHT22;23947;51.894;4.622;2022-07-29T15:37:06;27.10;1.00
38131;DHT22;23947;51.894;4.622;2022-07-29T15:39:31;27.10;1.00
38131;DHT22;23947;51.894;4.622;2022-07-29T15:41:57;27.10;1.00
38131;DHT22;23947;51.894;4.622;2022-07-29T15:44:24;27.20;1.00
38131;DHT22;23947;51.894;4.622;2022-07-29T15:46:50;27.30;1.00
38131;DHT22;23947;51.894;4.622;2022-07-29T15:49:37;27.20;1.00
38131;DHT22;23947;51.894;4.622;2022-07-29T15:52:06;26.90;1.00
38131;DHT22;23947;51.894;4.622;2022-07-29T15:54:32;26.90;1.00
38131;DHT22;23947;51.894;4.622;2022-07-29T15:56:58;26.80;1.00
38131;DHT22;23947;51.894;4.622;2022-07-29T15:59:24;26.90;1.00
38131;DHT22;23947;51.894;4.622;2022-07-29T16:01:50;26.90;1.00
38131;DHT22;23947;51.894;4.622;2022-07-29T16:04:16;26.90;1.00
38131;DHT22;23947;51.894;4.622;2022-07-29T16:06:42;26.70;1.00
38131;DHT22;23947;51.894;4.622;2022-07-29T16:09:08;26.50;1.00
38131;DHT22;23947;51.894;4.622;2022-07-29T16:11:34;26.30;1.00
38131;DHT22;23947;51.894;4.622;2022-07-29T16:14:00;26.00;1.00
38131;DHT22;23947;51.894;4.622;2022-07-29T16:16:26;26.20;1.00
38131;DHT22;23947;51.894;4.622;2022-07-29T16:18:52;26.20;1.00
38131;DHT22;23947;51.894;4.622;2022-07-29T16:21:20;26.20;1.00
38131;DHT22;23947;51.894;4.622;2022-07-29T16:23:49;26.10;1.00
38131;DHT22;23947;51.894;4.622;2022-07-29T16:26:15;26.10;1.00
38131;DHT22;23947;51.894;4.622;2022-07-29T16:28:41;26.10;1.00
38131;DHT22;23947;51.894;4.622;2022-07-29T16:31:07;25.90;1.00
38131;DHT22;23947;51.894;4.622;2022-07-29T16:33:33;25.90;1.00
38131;DHT22;23947;51.894;4.622;2022-07-29T16:35:59;25.80;1.00
38131;DHT22;23947;51.894;4.622;2022-07-29T16:38:25;25.90;1.00
38131;DHT22;23947;51.894;4.622;2022-07-29T16:40:51;25.90;1.00
38131;DHT22;23947;51.894;4.622;2022-07-29T16:43:17;25.80;1.00
38131;DHT22;23947;51.894;4.622;2022-07-29T16:45:43;25.80;1.00